Andrew, Iowa
Current Conditions -  °F | °C
As of 9:53 AM on Tuesday 21 Oct 2014 (Local Time) from KDBQ Reporting Station
Clear Clear  
Wind Chill:   Ceiling: Unl
Heat Index:   Visibility: 10mi
Dew Point:   Wind: 9mph
Humidity: 80%   Direction: 50°NE
Pressure: 30.21"   Gusts: NA
Location:  42.15°N, 90.59°W
Report Text: KDBQ 211453Z 05008KT 10SM CLR 08/05 A3021 RMK AO2 SLP236 T00830050 51022 $
Loading
Personal Weather Stations






























Interactive Weather Map
Tropical Storm Tracking
New forecast layout! Learn more

10-Day Weather Forecast

Advertisements
Track Severe Weather on mobile